sensor_id;sensor_type;location;lat;lon;timestamp;P1;durP1;ratioP1;P2;durP2;ratioP2
27847;SDS011;15212;48.830;8.730;2023-04-06T00:00:21;13.18;;;5.60;;
27847;SDS011;15212;48.830;8.730;2023-04-06T00:02:51;10.25;;;6.25;;
27847;SDS011;15212;48.830;8.730;2023-04-06T00:05:20;12.33;;;6.03;;
27847;SDS011;15212;48.830;8.730;2023-04-06T00:07:49;13.03;;;5.70;;
27847;SDS011;15212;48.830;8.730;2023-04-06T00:10:18;18.92;;;6.67;;
27847;SDS011;15212;48.830;8.730;2023-04-06T00:12:46;8.65;;;5.97;;
27847;SDS011;15212;48.830;8.730;2023-04-06T00:15:15;14.35;;;7.60;;
27847;SDS011;15212;48.830;8.730;2023-04-06T00:17:43;12.07;;;7.00;;
27847;SDS011;15212;48.830;8.730;2023-04-06T00:20:12;17.75;;;7.00;;
27847;SDS011;15212;48.830;8.730;2023-04-06T00:22:40;11.80;;;6.70;;
27847;SDS011;15212;48.830;8.730;2023-04-06T00:25:10;14.43;;;6.90;;
27847;SDS011;15212;48.830;8.730;2023-04-06T00:27:40;12.75;;;6.65;;
27847;SDS011;15212;48.830;8.730;2023-04-06T00:30:09;17.50;;;6.80;;
27847;SDS011;15212;48.830;8.730;2023-04-06T00:32:38;12.47;;;6.95;;
27847;SDS011;15212;48.830;8.730;2023-04-06T00:35:06;10.68;;;6.72;;
27847;SDS011;15212;48.830;8.730;2023-04-06T00:37:35;10.98;;;6.65;;
27847;SDS011;15212;48.830;8.730;2023-04-06T00:40:03;14.78;;;6.80;;
27847;SDS011;15212;48.830;8.730;2023-04-06T00:42:33;17.40;;;6.80;;
27847;SDS011;15212;48.830;8.730;2023-04-06T00:45:01;11.18;;;6.00;;
27847;SDS011;15212;48.830;8.730;2023-04-06T00:47:30;11.05;;;6.17;;
27847;SDS011;15212;48.830;8.730;2023-04-06T00:49:59;12.23;;;6.35;;
27847;SDS011;15212;48.830;8.730;2023-04-06T00:52:28;12.63;;;6.55;;
27847;SDS011;15212;48.830;8.730;2023-04-06T00:54:56;12.30;;;6.67;;
27847;SDS011;15212;48.830;8.730;2023-04-06T00:57:24;9.95;;;6.20;;
27847;SDS011;15212;48.830;8.730;2023-04-06T00:59:53;11.35;;;6.53;;
27847;SDS011;15212;48.830;8.730;2023-04-06T01:02:21;11.97;;;6.67;;
27847;SDS011;15212;48.830;8.730;2023-04-06T01:04:52;12.73;;;6.47;;
27847;SDS011;15212;48.830;8.730;2023-04-06T01:07:21;11.75;;;6.72;;
27847;SDS011;15212;48.830;8.730;2023-04-06T01:09:52;11.53;;;6.53;;
27847;SDS011;15212;48.830;8.730;2023-04-06T01:12:23;13.50;;;6.65;;
27847;SDS011;15212;48.830;8.730;2023-04-06T01:14:51;18.32;;;6.70;;
27847;SDS011;15212;48.830;8.730;2023-04-06T01:17:20;16.10;;;7.37;;
27847;SDS011;15212;48.830;8.730;2023-04-06T01:19:48;14.63;;;6.65;;
27847;SDS011;15212;48.830;8.730;2023-04-06T01:22:18;12.35;;;7.03;;
27847;SDS011;15212;48.830;8.730;2023-04-06T01:24:47;13.45;;;7.03;;
27847;SDS011;15212;48.830;8.730;2023-04-06T01:27:15;11.25;;;6.90;;
27847;SDS011;15212;48.830;8.730;2023-04-06T01:29:44;10.55;;;6.35;;
27847;SDS011;15212;48.830;8.730;2023-04-06T01:32:12;11.00;;;6.03;;
27847;SDS011;15212;48.830;8.730;2023-04-06T01:34:40;10.95;;;6.45;;
27847;SDS011;15212;48.830;8.730;2023-04-06T01:37:09;9.13;;;6.08;;
27847;SDS011;15212;48.830;8.730;2023-04-06T01:39:37;9.80;;;6.30;;
27847;SDS011;15212;48.830;8.730;2023-04-06T01:42:06;12.58;;;6.22;;
27847;SDS011;15212;48.830;8.730;2023-04-06T01:44:34;13.03;;;6.10;;
27847;SDS011;15212;48.830;8.730;2023-04-06T01:47:03;17.15;;;6.80;;
27847;SDS011;15212;48.830;8.730;2023-04-06T01:49:31;14.60;;;6.10;;
27847;SDS011;15212;48.830;8.730;2023-04-06T01:51:59;10.32;;;6.20;;
27847;SDS011;15212;48.830;8.730;2023-04-06T01:54:28;13.70;;;6.33;;
27847;SDS011;15212;48.830;8.730;2023-04-06T01:56:56;13.65;;;6.53;;
27847;SDS011;15212;48.830;8.730;2023-04-06T01:59:25;13.55;;;6.70;;
27847;SDS011;15212;48.830;8.730;2023-04-06T02:01:53;13.80;;;6.37;;
27847;SDS011;15212;48.830;8.730;2023-04-06T02:04:21;13.75;;;6.45;;
27847;SDS011;15212;48.830;8.730;2023-04-06T02:06:50;11.55;;;6.70;;
27847;SDS011;15212;48.830;8.730;2023-04-06T02:09:18;13.95;;;6.72;;
27847;SDS011;15212;48.830;8.730;2023-04-06T02:11:46;11.28;;;6.58;;
27847;SDS011;15212;48.830;8.730;2023-04-06T02:14:15;16.10;;;7.42;;
27847;SDS011;15212;48.830;8.730;2023-04-06T02:16:43;13.83;;;6.55;;
27847;SDS011;15212;48.830;8.730;2023-04-06T02:19:12;15.10;;;6.83;;
27847;SDS011;15212;48.830;8.730;2023-04-06T02:21:40;13.72;;;6.33;;
27847;SDS011;15212;48.830;8.730;2023-04-06T02:24:08;13.32;;;7.05;;
27847;SDS011;15212;48.830;8.730;2023-04-06T02:26:37;13.35;;;7.20;;
27847;SDS011;15212;48.830;8.730;2023-04-06T02:29:05;15.72;;;6.47;;
27847;SDS011;15212;48.830;8.730;2023-04-06T02:31:33;12.13;;;6.78;;
27847;SDS011;15212;48.830;8.730;2023-04-06T02:34:02;13.78;;;7.00;;
27847;SDS011;15212;48.830;8.730;2023-04-06T02:36:30;12.60;;;6.17;;
27847;SDS011;15212;48.830;8.730;2023-04-06T02:38:59;12.63;;;6.75;;
27847;SDS011;15212;48.830;8.730;2023-04-06T02:41:27;9.20;;;5.72;;
27847;SDS011;15212;48.830;8.730;2023-04-06T02:43:56;15.28;;;7.35;;
27847;SDS011;15212;48.830;8.730;2023-04-06T02:46:24;11.75;;;6.30;;
27847;SDS011;15212;48.830;8.730;2023-04-06T02:48:53;10.10;;;6.62;;
27847;SDS011;15212;48.830;8.730;2023-04-06T02:51:22;12.45;;;6.75;;
27847;SDS011;15212;48.830;8.730;2023-04-06T02:53:51;13.60;;;6.95;;
27847;SDS011;15212;48.830;8.730;2023-04-06T02:56:19;13.13;;;7.08;;
27847;SDS011;15212;48.830;8.730;2023-04-06T02:58:48;12.53;;;7.20;;
27847;SDS011;15212;48.830;8.730;2023-04-06T03:01:16;10.25;;;6.42;;
27847;SDS011;15212;48.830;8.730;2023-04-06T03:03:45;11.97;;;6.97;;
27847;SDS011;15212;48.830;8.730;2023-04-06T03:06:13;12.40;;;7.10;;
27847;SDS011;15212;48.830;8.730;2023-04-06T03:08:42;16.57;;;7.00;;
27847;SDS011;15212;48.830;8.730;2023-04-06T03:11:10;15.48;;;6.92;;
27847;SDS011;15212;48.830;8.730;2023-04-06T03:13:38;11.38;;;6.97;;
27847;SDS011;15212;48.830;8.730;2023-04-06T03:16:07;13.30;;;6.90;;
27847;SDS011;15212;48.830;8.730;2023-04-06T03:18:35;12.85;;;7.03;;
27847;SDS011;15212;48.830;8.730;2023-04-06T03:21:05;11.65;;;6.72;;
27847;SDS011;15212;48.830;8.730;2023-04-06T03:23:33;13.53;;;7.12;;
27847;SDS011;15212;48.830;8.730;2023-04-06T03:26:02;12.90;;;6.97;;
27847;SDS011;15212;48.830;8.730;2023-04-06T03:28:30;11.80;;;6.97;;
27847;SDS011;15212;48.830;8.730;2023-04-06T03:30:59;12.50;;;6.87;;
27847;SDS011;15212;48.830;8.730;2023-04-06T03:33:27;11.97;;;7.22;;
27847;SDS011;15212;48.830;8.730;2023-04-06T03:35:55;10.80;;;6.75;;
27847;SDS011;15212;48.830;8.730;2023-04-06T03:38:24;10.48;;;6.75;;
27847;SDS011;15212;48.830;8.730;2023-04-06T03:40:52;11.90;;;7.20;;
27847;SDS011;15212;48.830;8.730;2023-04-06T03:43:21;13.70;;;7.05;;
27847;SDS011;15212;48.830;8.730;2023-04-06T03:45:49;15.03;;;7.35;;
27847;SDS011;15212;48.830;8.730;2023-04-06T03:48:18;15.80;;;6.60;;
27847;SDS011;15212;48.830;8.730;2023-04-06T03:50:46;17.67;;;7.47;;
27847;SDS011;15212;48.830;8.730;2023-04-06T03:53:14;13.15;;;6.87;;
27847;SDS011;15212;48.830;8.730;2023-04-06T03:55:43;10.08;;;6.05;;
27847;SDS011;15212;48.830;8.730;2023-04-06T03:58:12;14.43;;;7.12;;
27847;SDS011;15212;48.830;8.730;2023-04-06T04:00:40;16.07;;;7.45;;
27847;SDS011;15212;48.830;8.730;2023-04-06T04:03:08;13.10;;;6.20;;
27847;SDS011;15212;48.830;8.730;2023-04-06T04:05:37;14.23;;;6.92;;
27847;SDS011;15212;48.830;8.730;2023-04-06T04:08:05;12.53;;;7.17;;
27847;SDS011;15212;48.830;8.730;2023-04-06T04:10:33;13.68;;;7.50;;
27847;SDS011;15212;48.830;8.730;2023-04-06T04:13:02;13.22;;;7.10;;
27847;SDS011;15212;48.830;8.730;2023-04-06T04:15:30;13.80;;;7.20;;
27847;SDS011;15212;48.830;8.730;2023-04-06T04:17:59;11.63;;;6.33;;
27847;SDS011;15212;48.830;8.730;2023-04-06T04:20:27;14.07;;;7.20;;
27847;SDS011;15212;48.830;8.730;2023-04-06T04:22:55;12.18;;;6.62;;
27847;SDS011;15212;48.830;8.730;2023-04-06T04:25:24;11.60;;;6.53;;
27847;SDS011;15212;48.830;8.730;2023-04-06T04:27:52;13.80;;;6.60;;
27847;SDS011;15212;48.830;8.730;2023-04-06T04:30:20;12.65;;;6.85;;
27847;SDS011;15212;48.830;8.730;2023-04-06T04:32:49;13.35;;;6.87;;
27847;SDS011;15212;48.830;8.730;2023-04-06T04:35:17;14.10;;;6.95;;
27847;SDS011;15212;48.830;8.730;2023-04-06T04:37:46;11.93;;;6.35;;
27847;SDS011;15212;48.830;8.730;2023-04-06T04:40:14;13.08;;;6.03;;
27847;SDS011;15212;48.830;8.730;2023-04-06T04:42:43;14.05;;;6.60;;
27847;SDS011;15212;48.830;8.730;2023-04-06T04:45:12;10.05;;;5.90;;
27847;SDS011;15212;48.830;8.730;2023-04-06T04:47:40;13.58;;;6.45;;
27847;SDS011;15212;48.830;8.730;2023-04-06T04:50:09;13.85;;;6.62;;
27847;SDS011;15212;48.830;8.730;2023-04-06T04:52:37;10.85;;;6.05;;
27847;SDS011;15212;48.830;8.730;2023-04-06T04:55:06;12.85;;;6.33;;
27847;SDS011;15212;48.830;8.730;2023-04-06T04:57:34;10.48;;;6.58;;
27847;SDS011;15212;48.830;8.730;2023-04-06T05:00:03;12.20;;;6.90;;
27847;SDS011;15212;48.830;8.730;2023-04-06T05:02:32;13.55;;;6.37;;
27847;SDS011;15212;48.830;8.730;2023-04-06T05:05:01;11.48;;;6.00;;
27847;SDS011;15212;48.830;8.730;2023-04-06T05:07:29;13.70;;;6.28;;
27847;SDS011;15212;48.830;8.730;2023-04-06T05:09:58;10.30;;;6.42;;
27847;SDS011;15212;48.830;8.730;2023-04-06T05:12:26;10.93;;;6.15;;
27847;SDS011;15212;48.830;8.730;2023-04-06T05:14:55;12.30;;;6.12;;
27847;SDS011;15212;48.830;8.730;2023-04-06T05:17:23;11.48;;;6.05;;
27847;SDS011;15212;48.830;8.730;2023-04-06T05:19:52;11.35;;;6.55;;
27847;SDS011;15212;48.830;8.730;2023-04-06T05:22:20;13.18;;;6.42;;
27847;SDS011;15212;48.830;8.730;2023-04-06T05:24:48;9.95;;;6.45;;
27847;SDS011;15212;48.830;8.730;2023-04-06T05:27:17;10.38;;;6.05;;
27847;SDS011;15212;48.830;8.730;2023-04-06T05:29:45;9.53;;;5.90;;
27847;SDS011;15212;48.830;8.730;2023-04-06T05:32:13;9.95;;;6.30;;
27847;SDS011;15212;48.830;8.730;2023-04-06T05:34:42;9.78;;;6.08;;
27847;SDS011;15212;48.830;8.730;2023-04-06T05:37:10;11.88;;;6.10;;
27847;SDS011;15212;48.830;8.730;2023-04-06T05:39:39;11.22;;;6.20;;
27847;SDS011;15212;48.830;8.730;2023-04-06T05:42:07;12.45;;;6.05;;
27847;SDS011;15212;48.830;8.730;2023-04-06T05:44:36;13.83;;;6.65;;
27847;SDS011;15212;48.830;8.730;2023-04-06T05:47:05;11.60;;;5.75;;
27847;SDS011;15212;48.830;8.730;2023-04-06T05:49:34;8.13;;;5.55;;
27847;SDS011;15212;48.830;8.730;2023-04-06T05:52:02;10.18;;;5.78;;
27847;SDS011;15212;48.830;8.730;2023-04-06T05:54:31;12.80;;;5.55;;
27847;SDS011;15212;48.830;8.730;2023-04-06T05:56:59;9.80;;;5.45;;
27847;SDS011;15212;48.830;8.730;2023-04-06T05:59:30;9.45;;;5.42;;
27847;SDS011;15212;48.830;8.730;2023-04-06T06:01:59;9.23;;;5.53;;
27847;SDS011;15212;48.830;8.730;2023-04-06T06:04:27;10.72;;;5.33;;
27847;SDS011;15212;48.830;8.730;2023-04-06T06:06:56;9.40;;;5.17;;
27847;SDS011;15212;48.830;8.730;2023-04-06T06:09:26;7.47;;;4.70;;
27847;SDS011;15212;48.830;8.730;2023-04-06T06:11:54;8.83;;;5.03;;
27847;SDS011;15212;48.830;8.730;2023-04-06T06:14:22;8.28;;;4.22;;
27847;SDS011;15212;48.830;8.730;2023-04-06T06:16:52;8.78;;;4.50;;
27847;SDS011;15212;48.830;8.730;2023-04-06T06:19:21;7.65;;;4.92;;
27847;SDS011;15212;48.830;8.730;2023-04-06T06:21:50;7.35;;;4.33;;
27847;SDS011;15212;48.830;8.730;2023-04-06T06:24:18;8.63;;;4.78;;
27847;SDS011;15212;48.830;8.730;2023-04-06T06:26:47;7.55;;;4.55;;
27847;SDS011;15212;48.830;8.730;2023-04-06T06:29:15;8.50;;;4.90;;
27847;SDS011;15212;48.830;8.730;2023-04-06T06:31:44;7.60;;;4.35;;
27847;SDS011;15212;48.830;8.730;2023-04-06T06:34:12;7.12;;;4.60;;
27847;SDS011;15212;48.830;8.730;2023-04-06T06:36:40;8.58;;;4.85;;
27847;SDS011;15212;48.830;8.730;2023-04-06T06:39:09;8.53;;;4.53;;
27847;SDS011;15212;48.830;8.730;2023-04-06T06:41:37;9.23;;;5.30;;
27847;SDS011;15212;48.830;8.730;2023-04-06T06:44:06;9.15;;;4.50;;
27847;SDS011;15212;48.830;8.730;2023-04-06T06:46:34;10.40;;;5.12;;
27847;SDS011;15212;48.830;8.730;2023-04-06T06:49:02;8.30;;;5.12;;
27847;SDS011;15212;48.830;8.730;2023-04-06T06:51:31;9.68;;;5.62;;
27847;SDS011;15212;48.830;8.730;2023-04-06T06:53:59;9.08;;;5.30;;
27847;SDS011;15212;48.830;8.730;2023-04-06T06:56:28;15.53;;;6.00;;
27847;SDS011;15212;48.830;8.730;2023-04-06T06:58:56;11.97;;;7.05;;
27847;SDS011;15212;48.830;8.730;2023-04-06T07:01:25;11.08;;;6.42;;
27847;SDS011;15212;48.830;8.730;2023-04-06T07:03:53;11.12;;;6.45;;
27847;SDS011;15212;48.830;8.730;2023-04-06T07:06:21;11.68;;;6.72;;
27847;SDS011;15212;48.830;8.730;2023-04-06T07:08:50;11.55;;;5.90;;
27847;SDS011;15212;48.830;8.730;2023-04-06T07:11:18;11.85;;;6.30;;
27847;SDS011;15212;48.830;8.730;2023-04-06T07:13:47;12.10;;;6.67;;
27847;SDS011;15212;48.830;8.730;2023-04-06T07:16:15;10.55;;;6.35;;
27847;SDS011;15212;48.830;8.730;2023-04-06T07:18:44;9.63;;;5.90;;
27847;SDS011;15212;48.830;8.730;2023-04-06T07:21:12;14.87;;;6.17;;
27847;SDS011;15212;48.830;8.730;2023-04-06T07:23:41;14.13;;;6.75;;
27847;SDS011;15212;48.830;8.730;2023-04-06T07:26:09;11.45;;;6.30;;
27847;SDS011;15212;48.830;8.730;2023-04-06T07:28:37;11.45;;;6.50;;
27847;SDS011;15212;48.830;8.730;2023-04-06T07:31:06;17.92;;;6.35;;
27847;SDS011;15212;48.830;8.730;2023-04-06T07:33:35;10.78;;;6.10;;
27847;SDS011;15212;48.830;8.730;2023-04-06T07:38:51;10.43;;;6.28;;
27847;SDS011;15212;48.830;8.730;2023-04-06T07:41:20;10.80;;;6.30;;
27847;SDS011;15212;48.830;8.730;2023-04-06T07:43:49;10.50;;;6.58;;
27847;SDS011;15212;48.830;8.730;2023-04-06T07:46:17;13.48;;;6.12;;
27847;SDS011;15212;48.830;8.730;2023-04-06T07:48:46;11.18;;;6.22;;
27847;SDS011;15212;48.830;8.730;2023-04-06T07:51:15;9.10;;;6.03;;
27847;SDS011;15212;48.830;8.730;2023-04-06T07:53:44;10.38;;;6.47;;
27847;SDS011;15212;48.830;8.730;2023-04-06T07:56:12;10.72;;;6.37;;
27847;SDS011;15212;48.830;8.730;2023-04-06T07:58:41;12.45;;;5.95;;
27847;SDS011;15212;48.830;8.730;2023-04-06T08:01:09;11.75;;;6.20;;
27847;SDS011;15212;48.830;8.730;2023-04-06T08:03:38;10.13;;;5.95;;
27847;SDS011;15212;48.830;8.730;2023-04-06T08:06:06;10.65;;;6.15;;
27847;SDS011;15212;48.830;8.730;2023-04-06T08:08:35;13.40;;;5.75;;
27847;SDS011;15212;48.830;8.730;2023-04-06T08:11:03;9.98;;;6.17;;
27847;SDS011;15212;48.830;8.730;2023-04-06T08:13:31;13.00;;;6.35;;
27847;SDS011;15212;48.830;8.730;2023-04-06T08:16:01;9.98;;;6.10;;
27847;SDS011;15212;48.830;8.730;2023-04-06T08:18:30;12.58;;;5.62;;
27847;SDS011;15212;48.830;8.730;2023-04-06T08:20:58;10.00;;;5.67;;
27847;SDS011;15212;48.830;8.730;2023-04-06T08:23:26;12.03;;;5.90;;
27847;SDS011;15212;48.830;8.730;2023-04-06T08:25:55;10.93;;;5.75;;
27847;SDS011;15212;48.830;8.730;2023-04-06T08:28:23;11.28;;;6.17;;
27847;SDS011;15212;48.830;8.730;2023-04-06T08:30:51;10.10;;;5.80;;
27847;SDS011;15212;48.830;8.730;2023-04-06T08:33:20;11.75;;;6.28;;
27847;SDS011;15212;48.830;8.730;2023-04-06T08:35:48;8.75;;;5.22;;
27847;SDS011;15212;48.830;8.730;2023-04-06T08:38:17;12.65;;;5.72;;
27847;SDS011;15212;48.830;8.730;2023-04-06T08:40:45;11.22;;;5.70;;
27847;SDS011;15212;48.830;8.730;2023-04-06T08:43:15;11.68;;;6.45;;
27847;SDS011;15212;48.830;8.730;2023-04-06T08:45:46;9.85;;;5.85;;
27847;SDS011;15212;48.830;8.730;2023-04-06T08:48:14;11.73;;;6.62;;
27847;SDS011;15212;48.830;8.730;2023-04-06T08:50:44;10.58;;;6.20;;
27847;SDS011;15212;48.830;8.730;2023-04-06T08:53:12;13.08;;;6.25;;
27847;SDS011;15212;48.830;8.730;2023-04-06T08:55:43;13.75;;;6.72;;
27847;SDS011;15212;48.830;8.730;2023-04-06T08:58:12;10.85;;;7.17;;
27847;SDS011;15212;48.830;8.730;2023-04-06T09:00:41;11.73;;;6.65;;
27847;SDS011;15212;48.830;8.730;2023-04-06T09:03:11;12.70;;;6.60;;
27847;SDS011;15212;48.830;8.730;2023-04-06T09:05:40;12.75;;;7.25;;
27847;SDS011;15212;48.830;8.730;2023-04-06T09:08:08;13.62;;;7.33;;
27847;SDS011;15212;48.830;8.730;2023-04-06T09:10:40;13.65;;;6.55;;
27847;SDS011;15212;48.830;8.730;2023-04-06T09:13:10;11.93;;;7.28;;
27847;SDS011;15212;48.830;8.730;2023-04-06T09:15:38;14.93;;;7.47;;
27847;SDS011;15212;48.830;8.730;2023-04-06T09:18:06;13.50;;;6.35;;
27847;SDS011;15212;48.830;8.730;2023-04-06T09:20:35;11.78;;;6.90;;
27847;SDS011;15212;48.830;8.730;2023-04-06T09:23:03;10.82;;;6.72;;
27847;SDS011;15212;48.830;8.730;2023-04-06T09:25:32;15.45;;;7.65;;
27847;SDS011;15212;48.830;8.730;2023-04-06T09:28:01;12.60;;;6.72;;
27847;SDS011;15212;48.830;8.730;2023-04-06T09:30:32;11.95;;;6.92;;
27847;SDS011;15212;48.830;8.730;2023-04-06T09:33:01;12.98;;;7.10;;
27847;SDS011;15212;48.830;8.730;2023-04-06T09:35:30;13.50;;;6.83;;
27847;SDS011;15212;48.830;8.730;2023-04-06T09:37:58;13.85;;;7.15;;
27847;SDS011;15212;48.830;8.730;2023-04-06T09:40:30;11.20;;;7.08;;
27847;SDS011;15212;48.830;8.730;2023-04-06T09:42:58;14.28;;;7.45;;
27847;SDS011;15212;48.830;8.730;2023-04-06T09:45:28;13.40;;;7.17;;
27847;SDS011;15212;48.830;8.730;2023-04-06T09:47:57;12.07;;;6.72;;
27847;SDS011;15212;48.830;8.730;2023-04-06T09:50:27;13.55;;;7.62;;
27847;SDS011;15212;48.830;8.730;2023-04-06T09:52:58;13.53;;;7.65;;
27847;SDS011;15212;48.830;8.730;2023-04-06T09:58:04;13.43;;;7.55;;
27847;SDS011;15212;48.830;8.730;2023-04-06T10:00:42;12.50;;;7.10;;
27847;SDS011;15212;48.830;8.730;2023-04-06T10:05:52;12.15;;;6.83;;
27847;SDS011;15212;48.830;8.730;2023-04-06T10:08:27;15.60;;;8.05;;
27847;SDS011;15212;48.830;8.730;2023-04-06T10:10:57;11.55;;;7.47;;
27847;SDS011;15212;48.830;8.730;2023-04-06T10:13:27;15.00;;;7.90;;
27847;SDS011;15212;48.830;8.730;2023-04-06T10:15:56;13.78;;;8.25;;
27847;SDS011;15212;48.830;8.730;2023-04-06T10:18:30;12.40;;;7.15;;
27847;SDS011;15212;48.830;8.730;2023-04-06T10:21:01;12.75;;;7.30;;
27847;SDS011;15212;48.830;8.730;2023-04-06T10:23:37;14.93;;;7.85;;
27847;SDS011;15212;48.830;8.730;2023-04-06T10:26:19;13.55;;;6.97;;
27847;SDS011;15212;48.830;8.730;2023-04-06T10:28:48;11.68;;;7.12;;
27847;SDS011;15212;48.830;8.730;2023-04-06T10:31:24;11.60;;;7.08;;
27847;SDS011;15212;48.830;8.730;2023-04-06T10:33:55;10.82;;;7.05;;
27847;SDS011;15212;48.830;8.730;2023-04-06T10:36:28;11.85;;;7.60;;
27847;SDS011;15212;48.830;8.730;2023-04-06T10:39:02;13.70;;;7.80;;
27847;SDS011;15212;48.830;8.730;2023-04-06T10:41:33;12.78;;;7.08;;
27847;SDS011;15212;48.830;8.730;2023-04-06T10:44:17;12.60;;;6.97;;
27847;SDS011;15212;48.830;8.730;2023-04-06T10:46:59;11.38;;;6.60;;
27847;SDS011;15212;48.830;8.730;2023-04-06T10:49:29;10.93;;;6.58;;
27847;SDS011;15212;48.830;8.730;2023-04-06T10:51:57;12.15;;;6.75;;
27847;SDS011;15212;48.830;8.730;2023-04-06T10:54:26;9.78;;;5.83;;
27847;SDS011;15212;48.830;8.730;2023-04-06T10:56:57;11.68;;;6.17;;
27847;SDS011;15212;48.830;8.730;2023-04-06T10:59:28;9.88;;;6.00;;
27847;SDS011;15212;48.830;8.730;2023-04-06T11:01:57;13.30;;;7.00;;
27847;SDS011;15212;48.830;8.730;2023-04-06T11:04:25;11.63;;;6.12;;
27847;SDS011;15212;48.830;8.730;2023-04-06T11:06:53;10.93;;;5.75;;
27847;SDS011;15212;48.830;8.730;2023-04-06T11:09:27;11.30;;;6.55;;
27847;SDS011;15212;48.830;8.730;2023-04-06T11:12:01;9.85;;;5.92;;
27847;SDS011;15212;48.830;8.730;2023-04-06T11:14:29;9.05;;;5.80;;
27847;SDS011;15212;48.830;8.730;2023-04-06T11:16:58;9.30;;;5.90;;
27847;SDS011;15212;48.830;8.730;2023-04-06T11:19:26;10.85;;;6.35;;
27847;SDS011;15212;48.830;8.730;2023-04-06T11:21:55;9.25;;;5.80;;
27847;SDS011;15212;48.830;8.730;2023-04-06T11:24:23;12.37;;;6.20;;
27847;SDS011;15212;48.830;8.730;2023-04-06T11:26:55;11.63;;;5.67;;
27847;SDS011;15212;48.830;8.730;2023-04-06T11:29:27;10.10;;;5.90;;
27847;SDS011;15212;48.830;8.730;2023-04-06T11:32:01;11.20;;;6.33;;
27847;SDS011;15212;48.830;8.730;2023-04-06T11:34:32;9.33;;;5.55;;
27847;SDS011;15212;48.830;8.730;2023-04-06T11:37:07;9.10;;;5.67;;
27847;SDS011;15212;48.830;8.730;2023-04-06T11:39:43;8.13;;;4.87;;
27847;SDS011;15212;48.830;8.730;2023-04-06T11:42:25;8.08;;;5.12;;
27847;SDS011;15212;48.830;8.730;2023-04-06T11:45:02;8.63;;;5.30;;
27847;SDS011;15212;48.830;8.730;2023-04-06T11:47:29;8.55;;;5.47;;
27847;SDS011;15212;48.830;8.730;2023-04-06T11:50:07;9.93;;;5.80;;
27847;SDS011;15212;48.830;8.730;2023-04-06T11:52:39;9.95;;;5.95;;
27847;SDS011;15212;48.830;8.730;2023-04-06T11:55:15;10.13;;;5.67;;
27847;SDS011;15212;48.830;8.730;2023-04-06T11:57:45;11.55;;;6.30;;
27847;SDS011;15212;48.830;8.730;2023-04-06T12:00:15;10.63;;;6.90;;
27847;SDS011;15212;48.830;8.730;2023-04-06T12:02:47;17.55;;;7.83;;
27847;SDS011;15212;48.830;8.730;2023-04-06T12:05:16;13.83;;;7.47;;
27847;SDS011;15212;48.830;8.730;2023-04-06T12:07:44;13.08;;;7.15;;
27847;SDS011;15212;48.830;8.730;2023-04-06T12:10:13;15.78;;;8.48;;
27847;SDS011;15212;48.830;8.730;2023-04-06T12:12:41;13.32;;;8.28;;
27847;SDS011;15212;48.830;8.730;2023-04-06T12:15:10;11.70;;;7.72;;
27847;SDS011;15212;48.830;8.730;2023-04-06T12:17:39;12.23;;;7.53;;
27847;SDS011;15212;48.830;8.730;2023-04-06T12:20:07;17.07;;;7.50;;
27847;SDS011;15212;48.830;8.730;2023-04-06T12:22:36;12.68;;;7.35;;
27847;SDS011;15212;48.830;8.730;2023-04-06T12:25:05;14.93;;;6.78;;
27847;SDS011;15212;48.830;8.730;2023-04-06T12:27:33;12.35;;;7.28;;
27847;SDS011;15212;48.830;8.730;2023-04-06T12:30:02;12.30;;;7.25;;
27847;SDS011;15212;48.830;8.730;2023-04-06T12:32:31;11.73;;;6.80;;
27847;SDS011;15212;48.830;8.730;2023-04-06T12:34:59;11.80;;;6.95;;
27847;SDS011;15212;48.830;8.730;2023-04-06T12:37:27;14.68;;;7.55;;
27847;SDS011;15212;48.830;8.730;2023-04-06T12:39:56;12.20;;;7.00;;
27847;SDS011;15212;48.830;8.730;2023-04-06T12:42:24;12.03;;;7.60;;
27847;SDS011;15212;48.830;8.730;2023-04-06T12:44:53;13.40;;;7.75;;
27847;SDS011;15212;48.830;8.730;2023-04-06T12:47:21;14.95;;;8.40;;
27847;SDS011;15212;48.830;8.730;2023-04-06T12:49:49;13.32;;;7.70;;
27847;SDS011;15212;48.830;8.730;2023-04-06T12:52:19;14.95;;;8.13;;
27847;SDS011;15212;48.830;8.730;2023-04-06T12:54:48;14.23;;;8.43;;
27847;SDS011;15212;48.830;8.730;2023-04-06T12:57:17;14.25;;;7.85;;
27847;SDS011;15212;48.830;8.730;2023-04-06T12:59:46;17.75;;;7.83;;
27847;SDS011;15212;48.830;8.730;2023-04-06T13:02:14;14.73;;;8.10;;
27847;SDS011;15212;48.830;8.730;2023-04-06T13:04:43;14.98;;;8.30;;
27847;SDS011;15212;48.830;8.730;2023-04-06T13:07:11;14.35;;;7.83;;
27847;SDS011;15212;48.830;8.730;2023-04-06T13:09:40;15.28;;;7.92;;
27847;SDS011;15212;48.830;8.730;2023-04-06T13:12:08;15.30;;;8.05;;
27847;SDS011;15212;48.830;8.730;2023-04-06T13:14:36;15.53;;;7.67;;
27847;SDS011;15212;48.830;8.730;2023-04-06T13:17:05;16.20;;;7.30;;
27847;SDS011;15212;48.830;8.730;2023-04-06T13:19:33;13.25;;;6.60;;
27847;SDS011;15212;48.830;8.730;2023-04-06T13:22:02;13.00;;;6.97;;
27847;SDS011;15212;48.830;8.730;2023-04-06T13:24:30;14.13;;;6.95;;
27847;SDS011;15212;48.830;8.730;2023-04-06T13:27:00;12.73;;;7.28;;
27847;SDS011;15212;48.830;8.730;2023-04-06T13:29:28;12.50;;;7.45;;
27847;SDS011;15212;48.830;8.730;2023-04-06T13:31:56;11.40;;;6.90;;
27847;SDS011;15212;48.830;8.730;2023-04-06T13:34:25;11.78;;;7.40;;
27847;SDS011;15212;48.830;8.730;2023-04-06T13:36:53;10.28;;;6.67;;
27847;SDS011;15212;48.830;8.730;2023-04-06T13:39:21;10.93;;;5.95;;
27847;SDS011;15212;48.830;8.730;2023-04-06T13:41:50;10.68;;;6.80;;
27847;SDS011;15212;48.830;8.730;2023-04-06T13:44:21;10.68;;;6.53;;
27847;SDS011;15212;48.830;8.730;2023-04-06T13:46:50;10.45;;;6.42;;
27847;SDS011;15212;48.830;8.730;2023-04-06T13:49:19;9.65;;;6.45;;
27847;SDS011;15212;48.830;8.730;2023-04-06T13:51:47;12.93;;;6.55;;
27847;SDS011;15212;48.830;8.730;2023-04-06T13:54:16;10.53;;;6.25;;
27847;SDS011;15212;48.830;8.730;2023-04-06T13:56:44;11.43;;;5.78;;
27847;SDS011;15212;48.830;8.730;2023-04-06T13:59:13;10.38;;;6.40;;
27847;SDS011;15212;48.830;8.730;2023-04-06T14:01:41;11.38;;;6.83;;
27847;SDS011;15212;48.830;8.730;2023-04-06T14:04:09;11.78;;;6.12;;
27847;SDS011;15212;48.830;8.730;2023-04-06T14:06:38;9.50;;;5.80;;
27847;SDS011;15212;48.830;8.730;2023-04-06T14:09:06;10.25;;;6.05;;
27847;SDS011;15212;48.830;8.730;2023-04-06T14:11:35;9.10;;;5.90;;
27847;SDS011;15212;48.830;8.730;2023-04-06T14:14:03;10.82;;;5.87;;
27847;SDS011;15212;48.830;8.730;2023-04-06T14:16:32;11.15;;;6.12;;
27847;SDS011;15212;48.830;8.730;2023-04-06T14:19:01;14.47;;;6.65;;
27847;SDS011;15212;48.830;8.730;2023-04-06T14:21:29;10.08;;;6.58;;
27847;SDS011;15212;48.830;8.730;2023-04-06T14:23:58;12.45;;;6.75;;
27847;SDS011;15212;48.830;8.730;2023-04-06T14:26:27;11.60;;;6.33;;
27847;SDS011;15212;48.830;8.730;2023-04-06T14:28:56;9.88;;;6.12;;
27847;SDS011;15212;48.830;8.730;2023-04-06T14:31:26;10.43;;;6.60;;
27847;SDS011;15212;48.830;8.730;2023-04-06T14:33:54;12.85;;;7.17;;
27847;SDS011;15212;48.830;8.730;2023-04-06T14:36:23;13.28;;;7.42;;
27847;SDS011;15212;48.830;8.730;2023-04-06T14:38:53;13.25;;;6.22;;
27847;SDS011;15212;48.830;8.730;2023-04-06T14:41:23;10.03;;;6.22;;
27847;SDS011;15212;48.830;8.730;2023-04-06T14:43:52;13.20;;;6.45;;
27847;SDS011;15212;48.830;8.730;2023-04-06T14:46:21;12.55;;;6.83;;
27847;SDS011;15212;48.830;8.730;2023-04-06T14:48:49;14.43;;;6.35;;
27847;SDS011;15212;48.830;8.730;2023-04-06T14:51:18;12.45;;;5.90;;
27847;SDS011;15212;48.830;8.730;2023-04-06T14:53:46;13.35;;;6.22;;